createdAt,value
2019-05-22T00:00:05.342Z,99426.94
2019-05-22T00:02:39.073Z,99425.06
2019-05-22T00:05:36.675Z,99439.79
2019-05-22T00:08:10.389Z,99425.25
2019-05-22T00:10:41.610Z,99427.73
2019-05-22T00:13:15.482Z,99426.20
2019-05-22T00:15:48.578Z,99430.08
2019-05-22T00:18:19.700Z,99430.08
2019-05-22T00:20:51.406Z,99429.90
2019-05-22T00:23:22.652Z,99422.81
2019-05-22T00:25:54.730Z,99428.05
2019-05-22T00:28:27.119Z,99431.62
2019-05-22T00:30:59.205Z,99432.70
2019-05-22T00:33:31.435Z,99432.57
2019-05-22T00:36:03.665Z,99433.92
2019-05-22T00:38:37.025Z,99435.06
2019-05-22T00:41:10.244Z,99431.62
2019-05-22T00:43:44.758Z,99436.80
2019-05-22T00:46:20.690Z,99435.09
2019-05-22T00:48:52.547Z,99429.16
2019-05-22T00:51:41.057Z,99426.45
2019-05-22T00:54:34.814Z,99416.89
2019-05-22T00:57:17.803Z,99424.22
2019-05-22T00:59:51.005Z,99425.77
2019-05-22T01:02:27.017Z,99430.41
2019-05-22T01:04:59.926Z,99432.78
2019-05-22T01:07:37.373Z,99433.55
2019-05-22T01:10:11.964Z,99435.05
2019-05-22T01:12:44.199Z,99437.94
2019-05-22T01:15:18.652Z,99435.03
2019-05-22T01:17:50.954Z,99431.31
2019-05-22T01:20:24.659Z,99431.55
2019-05-22T01:22:58.470Z,99431.42
2019-05-22T01:25:30.996Z,99429.69
2019-05-22T01:28:02.157Z,99435.03
2019-05-22T01:30:39.535Z,99438.75
2019-05-22T01:33:11.869Z,99439.44
2019-05-22T01:35:51.077Z,99441.21
2019-05-22T01:38:23.190Z,99443.64
2019-05-22T01:40:59.050Z,99446.98
2019-05-22T01:43:30.095Z,99440.94
2019-05-22T01:46:03.389Z,99438.30
2019-05-22T01:48:38.446Z,99442.63
2019-05-22T01:51:11.775Z,99447.94
2019-05-22T01:53:44.381Z,99453.01
2019-05-22T01:56:19.066Z,99454.46
2019-05-22T01:58:49.991Z,99453.88
2019-05-22T02:01:24.475Z,99453.57
2019-05-22T02:04:00.013Z,99453.88
2019-05-22T02:06:31.274Z,99451.45
2019-05-22T02:09:12.139Z,99456.94
2019-05-22T02:11:46.155Z,99451.98
2019-05-22T02:14:18.217Z,99450.86
2019-05-22T02:16:56.613Z,99450.16
2019-05-22T02:19:22.493Z,99447.97
2019-05-22T02:21:55.036Z,99445.79
2019-05-22T02:24:26.517Z,99451.96
2019-05-22T02:26:58.724Z,99445.67
2019-05-22T02:29:30.125Z,99446.95
2019-05-22T02:32:01.072Z,99453.12
2019-05-22T02:34:31.870Z,99448.06
2019-05-22T02:37:02.572Z,99445.36
2019-05-22T02:39:35.312Z,99452.36
2019-05-22T02:42:14.278Z,99450.52
2019-05-22T02:44:46.962Z,99451.77
2019-05-22T02:47:21.011Z,99451.05
2019-05-22T02:49:51.809Z,99457.05
2019-05-22T02:52:24.038Z,99461.47
2019-05-22T02:54:55.388Z,99462.77
2019-05-22T02:57:28.297Z,99456.34
2019-05-22T03:00:00.905Z,99462.97
2019-05-22T03:02:36.406Z,99462.79
2019-05-22T03:05:09.797Z,99466.33
2019-05-22T03:07:42.084Z,99465.94
2019-05-22T03:10:16.108Z,99464.25
2019-05-22T03:12:48.683Z,99467.86
2019-05-22T03:15:24.110Z,99466.52
2019-05-22T03:18:05.051Z,99470.44
2019-05-22T03:20:37.622Z,99466.45
2019-05-22T03:23:39.550Z,99469.61
2019-05-22T03:26:11.382Z,99471.71
2019-05-22T03:28:44.079Z,99470.45
2019-05-22T03:31:16.157Z,99472.40
2019-05-22T03:33:47.396Z,99476.73
2019-05-22T03:36:21.472Z,99473.29
2019-05-22T03:38:53.373Z,99474.73
2019-05-22T03:41:25.026Z,99477.19
2019-05-22T03:43:58.609Z,99483.48
2019-05-22T03:46:36.042Z,99481.67
2019-05-22T03:49:26.082Z,99478.13
2019-05-22T03:51:42.599Z,99481.00
2019-05-22T03:54:14.107Z,99475.96
2019-05-22T03:56:45.618Z,99478.34
2019-05-22T03:59:16.433Z,99480.16
2019-05-22T04:01:47.828Z,99482.33
2019-05-22T04:04:36.714Z,99484.46
2019-05-22T04:07:10.892Z,99482.37
2019-05-22T04:09:43.117Z,99479.83
2019-05-22T04:12:15.482Z,99487.01
2019-05-22T04:14:46.814Z,99483.38
2019-05-22T04:17:17.790Z,99487.52
2019-05-22T04:19:51.606Z,99486.88
2019-05-22T04:22:22.614Z,99493.91
2019-05-22T04:24:53.704Z,99491.82
2019-05-22T04:27:25.130Z,99500.16
2019-05-22T04:29:58.187Z,99501.27
2019-05-22T04:32:35.014Z,99506.89
2019-05-22T04:35:08.868Z,99505.77
2019-05-22T04:37:40.814Z,99500.92
2019-05-22T04:40:53.307Z,99503.09
2019-05-22T04:43:26.769Z,99507.30
2019-05-22T04:45:59.316Z,99506.91
2019-05-22T04:48:31.626Z,99511.11
2019-05-22T04:51:25.272Z,99519.17
2019-05-22T04:53:57.102Z,99514.16
2019-05-22T04:56:29.669Z,99526.55
2019-05-22T04:59:01.968Z,99530.53
2019-05-22T05:01:32.982Z,99520.47
2019-05-22T05:04:04.692Z,99523.87
2019-05-22T05:06:37.724Z,99525.22
2019-05-22T05:09:12.061Z,99526.57
2019-05-22T05:11:43.188Z,99522.89
2019-05-22T05:14:14.263Z,99516.80
2019-05-22T05:16:45.959Z,99524.70
2019-05-22T05:19:17.275Z,99526.58
2019-05-22T05:21:48.124Z,99523.20
2019-05-22T05:24:20.260Z,99528.66
2019-05-22T05:26:51.841Z,99529.86
2019-05-22T05:29:31.290Z,99536.02
2019-05-22T05:32:02.802Z,99530.70
2019-05-22T05:34:55.224Z,99535.20
2019-05-22T05:37:27.359Z,99535.14
2019-05-22T05:40:34.461Z,99541.64
2019-05-22T05:43:07.885Z,99533.59
2019-05-22T05:45:41.710Z,99541.18
2019-05-22T05:48:19.888Z,99545.20
2019-05-22T05:51:33.910Z,99544.89
2019-05-22T05:54:12.120Z,99545.36
2019-05-22T05:56:45.201Z,99542.96
2019-05-22T05:59:17.985Z,99547.92
2019-05-22T06:01:57.920Z,99543.44
2019-05-22T06:04:35.644Z,99542.58
2019-05-22T06:07:19.154Z,99548.28
2019-05-22T06:10:15.177Z,99549.27
2019-05-22T06:12:48.343Z,99558.08
2019-05-22T06:15:20.981Z,99544.52
2019-05-22T06:18:34.438Z,99551.23
2019-05-22T06:21:07.371Z,99554.35
2019-05-22T06:24:15.400Z,99555.58
2019-05-22T06:26:58.176Z,99554.62
2019-05-22T06:29:35.530Z,99558.80
2019-05-22T06:33:02.501Z,99560.44
2019-05-22T06:35:37.757Z,99560.38
2019-05-22T06:38:22.601Z,99563.88
2019-05-22T06:40:53.567Z,99561.84
2019-05-22T06:44:44.816Z,99564.02
2019-05-22T06:47:18.518Z,99569.36
2019-05-22T06:49:52.921Z,99570.65
2019-05-22T06:52:24.402Z,99568.21
2019-05-22T06:54:56.152Z,99574.77
2019-05-22T06:57:34.737Z,99576.67
2019-05-22T07:00:33.557Z,99576.14
2019-05-22T07:03:05.336Z,99579.89
2019-05-22T07:05:36.957Z,99583.10
2019-05-22T07:08:09.497Z,99584.48
2019-05-22T07:10:41.432Z,99581.56
2019-05-22T07:13:14.255Z,99583.22
2019-05-22T07:15:46.211Z,99582.09
2019-05-22T07:18:19.872Z,99581.53
2019-05-22T07:20:52.899Z,99586.31
2019-05-22T07:23:30.603Z,99591.66
2019-05-22T07:26:02.135Z,99588.19
2019-05-22T07:28:33.552Z,99591.67
2019-05-22T07:31:05.901Z,99587.50
2019-05-22T07:33:36.605Z,99591.20
2019-05-22T07:36:12.111Z,99591.60
2019-05-22T07:38:40.395Z,99590.25
2019-05-22T07:41:11.486Z,99589.86
2019-05-22T07:43:42.933Z,99590.70
2019-05-22T07:46:14.177Z,99584.48
2019-05-22T07:48:46.452Z,99580.92
2019-05-22T07:51:17.354Z,99586.37
2019-05-22T07:53:48.997Z,99574.39
2019-05-22T07:56:21.876Z,99571.41
2019-05-22T07:58:54.477Z,99570.32
2019-05-22T08:01:25.833Z,99570.43
2019-05-22T08:04:00.078Z,99565.45
2019-05-22T08:06:31.377Z,99569.62
2019-05-22T08:09:03.808Z,99570.78
2019-05-22T08:11:35.784Z,99571.69
2019-05-22T08:14:06.906Z,99576.06
2019-05-22T08:16:38.490Z,99569.30
2019-05-22T08:19:09.106Z,99577.69
2019-05-22T08:21:41.048Z,99578.41
2019-05-22T08:24:12.415Z,99577.77
2019-05-22T08:26:53.838Z,99579.72
2019-05-22T08:29:16.497Z,99574.86
2019-05-22T08:31:48.170Z,99581.84
2019-05-22T08:34:19.128Z,99572.02
2019-05-22T08:36:51.362Z,99576.33
2019-05-22T08:39:23.130Z,99578.17
2019-05-22T08:41:54.304Z,99573.09
2019-05-22T08:44:25.509Z,99577.75
2019-05-22T08:46:56.549Z,99574.25
2019-05-22T08:49:27.901Z,99572.63
2019-05-22T08:51:59.069Z,99571.98
2019-05-22T08:54:31.648Z,99568.69
2019-05-22T08:57:02.498Z,99573.11
2019-05-22T08:59:33.134Z,99575.15
2019-05-22T09:02:03.930Z,99574.79
2019-05-22T09:04:34.385Z,99570.39
2019-05-22T09:07:05.193Z,99573.00
2019-05-22T09:09:35.721Z,99569.45
2019-05-22T09:12:08.000Z,99577.72
2019-05-22T09:14:38.867Z,99579.19
2019-05-22T09:17:11.121Z,99580.75
2019-05-22T09:19:42.309Z,99579.34
2019-05-22T09:22:13.492Z,99578.08
2019-05-22T09:24:45.634Z,99578.23
2019-05-22T09:27:17.351Z,99586.31
2019-05-22T09:29:48.135Z,99577.62
2019-05-22T09:32:18.912Z,99581.42
2019-05-22T09:34:49.896Z,99582.63
2019-05-22T09:37:21.006Z,99580.35
2019-05-22T09:39:51.924Z,99580.97
2019-05-22T09:42:23.259Z,99586.70
2019-05-22T09:44:54.343Z,99589.75
2019-05-22T09:47:26.674Z,99590.80
2019-05-22T09:49:57.681Z,99594.10
2019-05-22T09:52:28.486Z,99591.02
2019-05-22T09:54:59.362Z,99599.81
2019-05-22T09:57:30.122Z,99599.93
2019-05-22T10:00:01.227Z,99604.34
2019-05-22T10:02:34.344Z,99600.80
2019-05-22T10:05:07.616Z,99599.24
2019-05-22T10:07:57.039Z,99603.98
2019-05-22T10:10:12.242Z,99600.51
2019-05-22T10:12:43.926Z,99601.99
2019-05-22T10:15:15.830Z,99604.34
2019-05-22T10:17:50.003Z,99608.55
2019-05-22T10:20:23.717Z,99605.91
2019-05-22T10:22:54.820Z,99612.98
2019-05-22T10:25:26.725Z,99609.07
2019-05-22T10:27:59.383Z,99604.80
2019-05-22T10:30:31.181Z,99604.37
2019-05-22T10:33:02.013Z,99616.00
2019-05-22T10:35:33.395Z,99609.79
2019-05-22T10:38:05.270Z,99608.48
2019-05-22T10:40:36.384Z,99608.81
2019-05-22T10:43:07.363Z,99614.94
2019-05-22T10:45:38.805Z,99601.50
2019-05-22T10:48:09.316Z,99608.66
2019-05-22T10:50:40.568Z,99602.11
2019-05-22T10:53:12.313Z,99593.94
2019-05-22T10:55:43.351Z,99595.42
2019-05-22T10:58:14.111Z,99590.47
2019-05-22T11:00:45.412Z,99589.98
2019-05-22T11:03:18.222Z,99592.34
2019-05-22T11:06:05.683Z,99585.91
2019-05-22T11:08:23.988Z,99586.30
2019-05-22T11:10:54.880Z,99582.00
2019-05-22T11:13:25.962Z,99581.72
2019-05-22T11:15:58.689Z,99587.08
2019-05-22T11:18:30.260Z,99580.34
2019-05-22T11:21:01.544Z,99576.47
2019-05-22T11:23:48.686Z,99585.86
2019-05-22T11:26:05.949Z,99578.15
2019-05-22T11:28:37.106Z,99583.82
2019-05-22T11:31:08.164Z,99582.80
2019-05-22T11:33:39.125Z,99574.36
2019-05-22T11:36:10.823Z,99577.52
2019-05-22T11:38:42.269Z,99575.16
2019-05-22T11:41:13.929Z,99576.09
2019-05-22T11:43:45.815Z,99575.81
2019-05-22T11:46:17.464Z,99567.34
2019-05-22T11:48:49.369Z,99571.55
2019-05-22T11:51:22.157Z,99570.22
2019-05-22T11:54:08.019Z,99573.21
2019-05-22T11:56:26.051Z,99565.73
2019-05-22T11:58:56.845Z,99558.45
2019-05-22T12:01:27.861Z,99564.84
2019-05-22T12:03:58.973Z,99564.36
2019-05-22T12:06:32.238Z,99566.61
2019-05-22T12:09:04.901Z,99558.63
2019-05-22T12:11:36.100Z,99560.33
2019-05-22T12:14:09.062Z,99562.80
2019-05-22T12:16:41.690Z,99561.98
2019-05-22T12:19:13.837Z,99558.99
2019-05-22T12:21:44.617Z,99561.50
2019-05-22T12:24:27.135Z,99555.97
2019-05-22T12:26:48.297Z,99556.31
2019-05-22T12:29:19.735Z,99556.58
2019-05-22T12:31:50.745Z,99563.40
2019-05-22T12:34:21.943Z,99559.61
2019-05-22T12:36:53.855Z,99553.05
2019-05-22T12:39:25.042Z,99559.33
2019-05-22T12:41:56.457Z,99566.42
2019-05-22T12:44:27.499Z,99564.27
2019-05-22T12:46:58.683Z,99566.97
2019-05-22T12:49:31.160Z,99561.80
2019-05-22T12:52:04.275Z,99563.16
2019-05-22T12:54:46.141Z,99556.85
2019-05-22T12:57:08.143Z,99560.42
2019-05-22T12:59:39.176Z,99556.61
2019-05-22T13:02:11.203Z,99553.30
2019-05-22T13:04:42.818Z,99553.02
2019-05-22T13:07:14.434Z,99551.64
2019-05-22T13:09:45.336Z,99550.50
2019-05-22T13:12:17.244Z,99548.00
2019-05-22T13:14:48.222Z,99543.78
2019-05-22T13:17:19.599Z,99548.72
2019-05-22T13:19:52.210Z,99536.14
2019-05-22T13:22:26.444Z,99538.52
2019-05-22T13:24:57.600Z,99541.11
2019-05-22T13:27:29.959Z,99542.30
2019-05-22T13:30:02.271Z,99538.66
2019-05-22T13:32:35.737Z,99543.03
2019-05-22T13:35:07.958Z,99538.22
2019-05-22T13:37:39.867Z,99541.52
2019-05-22T13:40:26.667Z,99531.22
2019-05-22T13:42:44.261Z,99533.75
2019-05-22T13:45:28.494Z,99533.38
2019-05-22T13:47:47.976Z,99536.21
2019-05-22T13:50:21.857Z,99532.44
2019-05-22T13:52:54.292Z,99539.47
2019-05-22T13:55:25.078Z,99527.94
2019-05-22T13:57:55.788Z,99529.92
2019-05-22T14:00:27.964Z,99527.08
2019-05-22T14:02:59.874Z,99519.23
2019-05-22T14:05:31.124Z,99516.41
2019-05-22T14:08:02.214Z,99521.84
2019-05-22T14:10:33.271Z,99524.84
2019-05-22T14:13:04.688Z,99526.28
2019-05-22T14:15:48.834Z,99515.99
2019-05-22T14:18:08.794Z,99518.60
2019-05-22T14:20:39.932Z,99522.66
2019-05-22T14:23:11.089Z,99511.28
2019-05-22T14:25:42.488Z,99514.48
2019-05-22T14:28:14.105Z,99514.78
2019-05-22T14:30:45.674Z,99510.07
2019-05-22T14:33:16.846Z,99506.37
2019-05-22T14:35:49.577Z,99514.41
2019-05-22T14:38:20.568Z,99506.25
2019-05-22T14:40:51.670Z,99521.78
2019-05-22T14:43:22.601Z,99519.82
2019-05-22T14:45:53.491Z,99521.41
2019-05-22T14:48:25.011Z,99523.33
2019-05-22T14:50:56.212Z,99520.95
2019-05-22T14:53:28.380Z,99527.20
2019-05-22T14:56:00.442Z,99527.55
2019-05-22T14:58:32.813Z,99534.26
2019-05-22T15:01:05.206Z,99526.66
2019-05-22T15:03:36.578Z,99527.35
2019-05-22T15:06:08.656Z,99531.56
2019-05-22T15:08:39.629Z,99532.03
2019-05-22T15:11:11.269Z,99528.99
2019-05-22T15:13:42.403Z,99529.30
2019-05-22T15:16:14.008Z,99535.64
2019-05-22T15:18:45.301Z,99531.77
2019-05-22T15:21:17.369Z,99528.98
2019-05-22T15:23:51.054Z,99538.88
2019-05-22T15:26:22.665Z,99523.66
2019-05-22T15:28:53.674Z,99523.45
2019-05-22T15:31:24.714Z,99526.57
2019-05-22T15:33:56.161Z,99531.42
2019-05-22T15:36:27.099Z,99527.72
2019-05-22T15:38:58.240Z,99527.59
2019-05-22T15:41:28.930Z,99527.84
2019-05-22T15:43:59.980Z,99529.11
2019-05-22T15:46:32.870Z,99530.19
2019-05-22T15:49:06.607Z,99528.80
2019-05-22T15:51:40.905Z,99528.28
2019-05-22T15:54:12.797Z,99523.94
2019-05-22T15:56:44.281Z,99527.59
2019-05-22T15:59:15.145Z,99528.55
2019-05-22T16:01:47.746Z,99530.83
2019-05-22T16:04:20.275Z,99526.52
2019-05-22T16:06:52.340Z,99525.47
2019-05-22T16:09:25.834Z,99522.73
2019-05-22T16:11:56.764Z,99517.95
2019-05-22T16:14:31.624Z,99528.25
2019-05-22T16:17:05.983Z,99524.91
2019-05-22T16:19:37.276Z,99523.25
2019-05-22T16:22:09.647Z,99523.13
2019-05-22T16:24:42.380Z,99522.30
2019-05-22T16:27:15.083Z,99522.70
2019-05-22T16:29:46.952Z,99521.31
2019-05-22T16:32:19.501Z,99519.98
2019-05-22T16:34:51.379Z,99521.19
2019-05-22T16:37:22.942Z,99517.92
2019-05-22T16:39:53.687Z,99525.90
2019-05-22T16:42:24.850Z,99521.12
2019-05-22T16:44:56.079Z,99517.70
2019-05-22T16:47:27.583Z,99526.41
2019-05-22T16:49:59.174Z,99524.76
2019-05-22T16:52:30.838Z,99527.33
2019-05-22T16:55:03.873Z,99530.52
2019-05-22T16:57:35.196Z,99531.92
2019-05-22T17:00:07.272Z,99525.12
2019-05-22T17:02:39.613Z,99525.56
2019-05-22T17:05:12.635Z,99528.09
2019-05-22T17:07:45.137Z,99519.97
2019-05-22T17:10:17.021Z,99530.41
2019-05-22T17:12:48.868Z,99531.05
2019-05-22T17:15:20.557Z,99527.16
2019-05-22T17:17:51.579Z,99527.41
2019-05-22T17:20:25.387Z,99526.45
2019-05-22T17:22:56.709Z,99529.78
2019-05-22T17:25:28.149Z,99518.69
2019-05-22T17:27:58.921Z,99518.33
2019-05-22T17:30:30.308Z,99522.44
2019-05-22T17:33:01.729Z,99523.75
2019-05-22T17:35:32.344Z,99522.73
2019-05-22T17:38:03.503Z,99528.84
2019-05-22T17:40:36.498Z,99527.97
2019-05-22T17:43:09.470Z,99529.03
2019-05-22T17:45:43.836Z,99528.26
2019-05-22T17:48:15.360Z,99530.34
2019-05-22T17:50:47.490Z,99533.04
2019-05-22T17:53:19.377Z,99534.25
2019-05-22T17:55:50.808Z,99532.92
2019-05-22T17:58:25.762Z,99536.07
2019-05-22T18:00:54.543Z,99536.16
2019-05-22T18:03:25.476Z,99540.79
2019-05-22T18:05:57.120Z,99539.48
2019-05-22T18:08:28.509Z,99536.70
2019-05-22T18:11:01.180Z,99536.59
2019-05-22T18:13:32.101Z,99535.70
2019-05-22T18:16:04.743Z,99536.27
2019-05-22T18:18:35.871Z,99530.86
2019-05-22T18:21:10.391Z,99528.41
2019-05-22T18:23:39.880Z,99533.06
2019-05-22T18:26:10.932Z,99535.55
2019-05-22T18:28:41.972Z,99538.54
2019-05-22T18:31:12.869Z,99545.39
2019-05-22T18:33:43.668Z,99541.56
2019-05-22T18:36:14.545Z,99547.02
2019-05-22T18:38:45.440Z,99542.88
2019-05-22T18:41:16.062Z,99550.78
2019-05-22T18:43:46.848Z,99551.05
2019-05-22T18:46:17.721Z,99550.95
2019-05-22T18:48:48.687Z,99550.56
2019-05-22T18:51:20.196Z,99549.11
2019-05-22T18:53:51.588Z,99548.27
2019-05-22T18:56:22.262Z,99550.66
2019-05-22T18:58:53.462Z,99549.49
2019-05-22T19:01:24.157Z,99555.48
2019-05-22T19:03:54.644Z,99548.86
2019-05-22T19:06:30.387Z,99561.15
2019-05-22T19:08:59.029Z,99560.94
2019-05-22T19:11:30.355Z,99562.52
2019-05-22T19:14:01.320Z,99566.81
2019-05-22T19:16:33.206Z,99571.33
2019-05-22T19:19:04.418Z,99566.88
2019-05-22T19:21:35.567Z,99563.89
2019-05-22T19:24:06.300Z,99566.67
2019-05-22T19:26:37.153Z,99566.41
2019-05-22T19:29:08.333Z,99565.46
2019-05-22T19:31:39.805Z,99565.58
2019-05-22T19:34:11.045Z,99573.89
2019-05-22T19:36:42.135Z,99576.06
2019-05-22T19:39:13.239Z,99579.52
2019-05-22T19:41:44.472Z,99577.13
2019-05-22T19:44:16.877Z,99577.17
2019-05-22T19:46:49.739Z,99575.30
2019-05-22T19:49:27.577Z,99576.70
2019-05-22T19:52:01.676Z,99581.29
2019-05-22T19:54:32.782Z,99586.47
2019-05-22T19:57:04.669Z,99584.86
2019-05-22T19:59:35.700Z,99594.05
2019-05-22T20:02:10.136Z,99587.34
2019-05-22T20:04:46.168Z,99595.22
2019-05-22T20:07:17.884Z,99595.34
2019-05-22T20:09:51.509Z,99607.13
2019-05-22T20:12:25.026Z,99604.44
2019-05-22T20:14:55.358Z,99600.53
2019-05-22T20:17:28.731Z,99603.06
2019-05-22T20:20:00.109Z,99606.81
2019-05-22T20:22:30.707Z,99605.56
2019-05-22T20:25:04.108Z,99606.20
2019-05-22T20:27:36.122Z,99607.75
2019-05-22T20:30:08.954Z,99607.55
2019-05-22T20:32:41.178Z,99602.77
2019-05-22T20:35:12.529Z,99604.87
2019-05-22T20:37:46.240Z,99601.39
2019-05-22T20:40:19.353Z,99605.80
2019-05-22T20:42:51.897Z,99599.60
2019-05-22T20:45:25.577Z,99602.04
2019-05-22T20:48:09.698Z,99592.33
2019-05-22T20:50:40.879Z,99599.88
2019-05-22T20:53:12.500Z,99598.80
2019-05-22T20:55:43.730Z,99604.90
2019-05-22T20:58:16.747Z,99602.09
2019-05-22T21:00:49.058Z,99603.38
2019-05-22T21:03:21.373Z,99599.64
2019-05-22T21:05:54.240Z,99598.56
2019-05-22T21:08:26.722Z,99602.28
2019-05-22T21:10:58.754Z,99603.30
2019-05-22T21:13:30.403Z,99602.26
2019-05-22T21:16:01.096Z,99607.16
2019-05-22T21:18:50.759Z,99607.09
2019-05-22T21:21:25.607Z,99609.23
2019-05-22T21:24:09.417Z,99605.47
2019-05-22T21:26:30.201Z,99606.99
2019-05-22T21:29:01.581Z,99607.44
2019-05-22T21:31:32.168Z,99615.36
2019-05-22T21:34:03.145Z,99612.41
2019-05-22T21:36:33.902Z,99607.44
2019-05-22T21:39:07.473Z,99610.31
2019-05-22T21:41:37.976Z,99613.91
2019-05-22T21:44:10.029Z,99616.14
2019-05-22T21:46:41.475Z,99612.48
2019-05-22T21:49:13.183Z,99608.27
2019-05-22T21:51:44.333Z,99614.24
2019-05-22T21:54:16.082Z,99614.17
2019-05-22T21:56:47.104Z,99614.17
2019-05-22T21:59:18.009Z,99607.39
2019-05-22T22:01:59.748Z,99606.76
2019-05-22T22:04:35.051Z,99610.31
2019-05-22T22:07:07.256Z,99604.77
2019-05-22T22:09:40.128Z,99606.81
2019-05-22T22:12:11.475Z,99603.70
2019-05-22T22:14:43.190Z,99604.25
2019-05-22T22:17:14.689Z,99606.84
2019-05-22T22:19:46.871Z,99605.20
2019-05-22T22:22:23.905Z,99608.31
2019-05-22T22:24:55.616Z,99604.85
2019-05-22T22:27:27.269Z,99608.55
2019-05-22T22:29:58.326Z,99604.80
2019-05-22T22:32:31.074Z,99605.20
2019-05-22T22:35:03.849Z,99603.09
2019-05-22T22:37:35.828Z,99604.70
2019-05-22T22:40:08.735Z,99605.24
2019-05-22T22:42:40.444Z,99603.66
2019-05-22T22:45:19.591Z,99597.87
2019-05-22T22:47:52.145Z,99599.94
2019-05-22T22:50:23.736Z,99601.28
2019-05-22T22:52:56.312Z,99604.70
2019-05-22T22:55:29.362Z,99607.27
2019-05-22T22:58:16.026Z,99604.28
2019-05-22T23:00:41.175Z,99603.61
2019-05-22T23:03:14.230Z,99612.30
2019-05-22T23:05:47.265Z,99607.21
2019-05-22T23:08:22.024Z,99606.09
2019-05-22T23:10:53.078Z,99610.75
2019-05-22T23:13:26.231Z,99607.96
2019-05-22T23:15:58.034Z,99611.05
2019-05-22T23:19:15.909Z,99612.04
2019-05-22T23:21:47.850Z,99614.00
2019-05-22T23:24:19.740Z,99611.09
2019-05-22T23:26:52.113Z,99613.41
2019-05-22T23:29:22.586Z,99614.74
2019-05-22T23:31:55.325Z,99613.54
2019-05-22T23:34:26.585Z,99619.03
2019-05-22T23:36:58.776Z,99613.54
2019-05-22T23:39:30.701Z,99610.30
2019-05-22T23:42:07.165Z,99616.97
2019-05-22T23:44:39.814Z,99613.80
2019-05-22T23:47:11.071Z,99614.50
2019-05-22T23:49:42.862Z,99617.58
2019-05-22T23:52:15.490Z,99621.03
2019-05-22T23:54:48.057Z,99621.03
2019-05-22T23:57:20.706Z,99618.61
2019-05-22T23:59:56.797Z,99618.00
